Time;durP1;ratioP1;P1;durP2;ratioP2;P2;SDS_P1;SDS_P2;PMS_P1;PMS_P2;Temp;Humidity;BMP_temperature;BMP_pressure;BME280_temperature;BME280_humidity;BME280_pressure;Samples;Min_cycle;Max_cycle;Signal;HPM_P1;HPM_P2
2023/03/31 00:00:25;;;;;;;;;;;18.60;45.70;;;;;;5073743;28;19908;-76
2023/03/31 00:02:52;;;;;;;;;;;18.60;45.60;;;;;;5073839;28;19962;-76
2023/03/31 00:05:20;;;;;;;;;;;18.50;45.50;;;;;;5073845;28;19919;-76
2023/03/31 00:07:47;;;;;;;;;;;18.60;45.50;;;;;;5073594;28;20030;-76
2023/03/31 00:10:14;;;;;;;;;;;18.70;45.60;;;;;;5073724;28;20329;-75
2023/03/31 00:12:40;;;;;;;;;;;18.60;45.40;;;;;;5073600;28;19912;-76
2023/03/31 00:15:06;;;;;;;;;;;18.70;45.50;;;;;;5054531;28;20308;-76
2023/03/31 00:17:32;;;;;;;;;;;18.70;45.60;;;;;;5053543;28;19920;-76
2023/03/31 00:19:59;;;;;;;;;;;18.70;45.70;;;;;;5053498;28;19909;-76
2023/03/31 00:22:28;;;;;;;;;;;18.60;45.70;;;;;;5035372;28;19913;-75
2023/03/31 00:24:54;;;;;;;;;;;18.60;45.70;;;;;;5053355;28;19912;-76
2023/03/31 00:27:20;;;;;;;;;;;18.50;45.80;;;;;;5053181;28;19919;-76
2023/03/31 00:29:49;;;;;;;;;;;18.50;45.80;;;;;;5035392;28;19912;-75
2023/03/31 00:32:15;;;;;;;;;;;18.50;45.90;;;;;;5053086;28;20391;-76
2023/03/31 00:34:41;;;;;;;;;;;18.40;45.90;;;;;;5053175;28;19960;-75
2023/03/31 00:37:08;;;;;;;;;;;18.40;45.90;;;;;;5052900;28;19958;-75
2023/03/31 00:39:35;;;;;;;;;;;18.50;46.00;;;;;;5035459;28;19913;-76
2023/03/31 00:42:02;;;;;;;;;;;18.40;46.00;;;;;;5053036;28;19913;-75
2023/03/31 00:44:29;;;;;;;;;;;18.30;46.00;;;;;;5053087;28;19912;-76
2023/03/31 00:47:09;;;;;;;;;;;18.40;46.00;;;;;;5035273;28;19924;-76
2023/03/31 00:49:45;;;;;;;;;;;18.30;45.80;;;;;;5052896;28;20708;-76
2023/03/31 00:52:14;;;;;;;;;;;18.40;45.80;;;;;;5052782;28;19909;-75
2023/03/31 00:54:41;;;;;;;;;;;18.40;45.80;;;;;;5052607;28;19912;-76
2023/03/31 00:57:07;;;;;;;;;;;18.30;45.80;;;;;;5034910;28;19919;-75
2023/03/31 00:59:37;;;;;;;;;;;18.30;45.80;;;;;;5052618;28;20338;-75
2023/03/31 01:02:03;;;;;;;;;;;18.40;45.90;;;;;;5052723;28;19909;-76
2023/03/31 01:04:30;;;;;;;;;;;18.30;46.00;;;;;;5052010;28;19966;-76
2023/03/31 01:07:01;;;;;;;;;;;18.30;46.00;;;;;;5033828;28;20019;-76
2023/03/31 01:09:33;;;;;;;;;;;18.20;45.90;;;;;;5052597;28;19920;-76
2023/03/31 01:12:01;;;;;;;;;;;18.40;45.90;;;;;;5052638;28;19962;-76
2023/03/31 01:14:27;;;;;;;;;;;18.30;45.90;;;;;;5057946;28;19916;-76
2023/03/31 01:16:53;;;;;;;;;;;18.30;45.80;;;;;;5072249;28;19912;-75
2023/03/31 01:19:35;;;;;;;;;;;18.40;45.80;;;;;;5072089;28;19912;-75
2023/03/31 01:22:26;;;;;;;;;;;18.40;45.70;;;;;;5071445;28;19916;-76
2023/03/31 01:24:52;;;;;;;;;;;18.50;45.80;;;;;;5072115;28;19920;-76
2023/03/31 01:27:21;;;;;;;;;;;18.40;45.70;;;;;;5070588;28;19916;-76
2023/03/31 01:29:47;;;;;;;;;;;18.40;45.80;;;;;;5070720;28;19986;-76
2023/03/31 01:32:22;;;;;;;;;;;18.30;45.80;;;;;;5072097;28;19908;-75
2023/03/31 01:35:06;;;;;;;;;;;18.40;45.80;;;;;;5071975;28;19954;-76
2023/03/31 01:37:42;;;;;;;;;;;18.40;45.90;;;;;;5071855;28;19950;-76
2023/03/31 01:40:26;;;;;;;;;;;18.30;46.00;;;;;;5070746;28;20422;-76
2023/03/31 01:43:01;;;;;;;;;;;18.10;46.00;;;;;;5070711;28;19935;-75
2023/03/31 01:45:46;;;;;;;;;;;18.30;46.10;;;;;;5071917;28;19915;-76
2023/03/31 01:48:17;;;;;;;;;;;18.30;46.10;;;;;;5070288;28;19938;-76
2023/03/31 01:50:44;;;;;;;;;;;18.20;46.10;;;;;;5070477;28;20001;-76
2023/03/31 01:53:19;;;;;;;;;;;18.20;46.10;;;;;;5071731;28;19994;-76
2023/03/31 01:55:52;;;;;;;;;;;18.20;46.10;;;;;;5070570;28;19915;-76
2023/03/31 01:58:18;;;;;;;;;;;18.20;46.10;;;;;;5048939;28;19909;-75
2023/03/31 02:01:05;;;;;;;;;;;18.20;46.20;;;;;;5049144;28;19966;-75
2023/03/31 02:03:34;;;;;;;;;;;18.20;46.20;;;;;;5032360;28;19908;-76
2023/03/31 02:06:04;;;;;;;;;;;18.30;46.30;;;;;;5049308;28;19913;-76
2023/03/31 02:08:39;;;;;;;;;;;18.20;46.10;;;;;;5032335;28;19956;-75
2023/03/31 02:11:05;;;;;;;;;;;18.20;46.00;;;;;;5032452;28;19913;-76
2023/03/31 02:13:33;;;;;;;;;;;18.30;46.00;;;;;;5032075;28;19924;-76
2023/03/31 02:16:01;;;;;;;;;;;18.30;46.00;;;;;;5032319;28;20371;-76
2023/03/31 02:18:32;;;;;;;;;;;18.30;46.00;;;;;;5048826;28;19916;-75
2023/03/31 02:20:58;;;;;;;;;;;18.30;46.00;;;;;;5048980;28;19912;-76
2023/03/31 02:23:30;;;;;;;;;;;18.30;46.10;;;;;;5031946;28;20022;-76
2023/03/31 02:25:59;;;;;;;;;;;18.30;46.10;;;;;;5032282;28;20446;-76
2023/03/31 02:28:27;;;;;;;;;;;18.30;46.10;;;;;;5051806;28;19923;-76
2023/03/31 02:31:01;;;;;;;;;;;18.20;46.10;;;;;;5053373;28;19916;-76
2023/03/31 02:33:27;;;;;;;;;;;18.20;46.10;;;;;;5071267;28;19938;-76
2023/03/31 02:35:53;;;;;;;;;;;18.20;46.10;;;;;;5071381;28;19908;-75
2023/03/31 02:38:20;;;;;;;;;;;18.40;46.10;;;;;;5070131;28;19909;-75
2023/03/31 02:40:46;;;;;;;;;;;18.30;46.00;;;;;;5069944;28;19909;-76
2023/03/31 02:43:12;;;;;;;;;;;18.30;46.00;;;;;;5070058;28;19916;-75
2023/03/31 02:45:48;;;;;;;;;;;18.20;45.90;;;;;;5071341;28;19914;-76
2023/03/31 02:48:14;;;;;;;;;;;18.40;45.90;;;;;;5069812;28;20387;-75
2023/03/31 02:50:46;;;;;;;;;;;18.30;45.90;;;;;;5070025;28;19912;-76
2023/03/31 02:53:27;;;;;;;;;;;18.40;45.80;;;;;;5069825;28;19999;-75
2023/03/31 02:55:53;;;;;;;;;;;18.30;45.80;;;;;;5071147;28;19915;-76
2023/03/31 02:58:22;;;;;;;;;;;18.30;45.90;;;;;;5071003;28;20304;-76
2023/03/31 03:01:04;;;;;;;;;;;18.30;45.90;;;;;;5070038;28;19908;-76
2023/03/31 03:04:03;;;;;;;;;;;18.30;45.90;;;;;;5069407;28;19920;-75
2023/03/31 03:06:32;;;;;;;;;;;18.20;45.90;;;;;;4989248;28;19917;-76
2023/03/31 03:09:28;;;;;;;;;;;18.20;46.00;;;;;;4973067;28;19914;-76
2023/03/31 03:12:13;;;;;;;;;;;18.20;46.10;;;;;;4931492;29;19922;-75
2023/03/31 03:14:48;;;;;;;;;;;18.20;46.10;;;;;;4931340;29;19981;-76
2023/03/31 03:17:17;;;;;;;;;;;18.20;46.20;;;;;;4931245;29;19921;-75
2023/03/31 03:19:43;;;;;;;;;;;18.10;46.20;;;;;;4931579;29;19911;-76
2023/03/31 03:22:09;;;;;;;;;;;18.20;46.30;;;;;;4931212;29;19910;-76
2023/03/31 03:24:35;;;;;;;;;;;18.10;46.40;;;;;;4915171;29;19970;-76
2023/03/31 03:27:01;;;;;;;;;;;18.10;46.40;;;;;;4931277;29;19986;-76
2023/03/31 03:29:27;;;;;;;;;;;18.10;46.40;;;;;;4933254;29;20009;-75
2023/03/31 03:31:52;;;;;;;;;;;18.10;46.50;;;;;;4934982;29;20398;-75
2023/03/31 03:34:19;;;;;;;;;;;18.10;46.50;;;;;;4934672;29;20003;-76
2023/03/31 03:36:45;;;;;;;;;;;18.00;46.40;;;;;;4934826;29;20001;-76
2023/03/31 03:39:11;;;;;;;;;;;18.10;46.30;;;;;;4934747;29;19942;-75
2023/03/31 03:41:37;;;;;;;;;;;18.30;46.30;;;;;;4952236;28;19968;-76
2023/03/31 03:44:03;;;;;;;;;;;18.10;46.10;;;;;;4992298;28;19964;-75
2023/03/31 03:46:29;;;;;;;;;;;18.20;46.10;;;;;;4992290;28;19913;-75
2023/03/31 03:48:55;;;;;;;;;;;18.20;46.00;;;;;;5040610;28;20368;-75
2023/03/31 03:51:22;;;;;;;;;;;18.30;46.20;;;;;;5074252;28;20291;-75
2023/03/31 03:53:47;;;;;;;;;;;18.20;46.20;;;;;;5073867;28;20276;-75
2023/03/31 03:56:14;;;;;;;;;;;18.30;46.40;;;;;;5072699;28;19915;-76
2023/03/31 03:58:40;;;;;;;;;;;18.10;46.40;;;;;;5074292;28;19912;-75
2023/03/31 04:01:05;;;;;;;;;;;18.10;46.50;;;;;;5072555;28;20386;-75
2023/03/31 04:03:31;;;;;;;;;;;18.20;46.60;;;;;;5073671;28;19908;-75
2023/03/31 04:05:57;;;;;;;;;;;18.10;46.50;;;;;;5073665;28;19921;-75
2023/03/31 04:08:23;;;;;;;;;;;18.20;46.40;;;;;;5073553;28;20054;-75
2023/03/31 04:10:49;;;;;;;;;;;18.20;46.10;;;;;;5073650;28;19913;-76
2023/03/31 04:13:16;;;;;;;;;;;18.20;46.10;;;;;;5070137;28;19935;-75
2023/03/31 04:15:42;;;;;;;;;;;18.30;46.10;;;;;;5053614;28;20392;-75
2023/03/31 04:18:09;;;;;;;;;;;18.40;46.20;;;;;;5053441;28;20677;-75
2023/03/31 04:20:38;;;;;;;;;;;18.30;46.10;;;;;;5035614;28;20022;-76
2023/03/31 04:23:08;;;;;;;;;;;18.30;46.10;;;;;;5053161;28;19909;-75
2023/03/31 04:25:37;;;;;;;;;;;18.40;46.00;;;;;;5053457;28;19908;-75
2023/03/31 04:28:05;;;;;;;;;;;18.40;45.90;;;;;;5053331;28;20349;-76
2023/03/31 04:30:31;;;;;;;;;;;18.30;46.00;;;;;;5053288;28;19912;-76
2023/03/31 04:32:58;;;;;;;;;;;18.30;46.00;;;;;;5035435;28;19919;-76
2023/03/31 04:35:25;;;;;;;;;;;18.30;46.10;;;;;;5053055;28;19912;-75
2023/03/31 04:37:57;;;;;;;;;;;18.30;46.20;;;;;;5053099;28;19913;-75
2023/03/31 04:40:24;;;;;;;;;;;18.30;46.20;;;;;;5053049;28;19909;-75
2023/03/31 04:42:50;;;;;;;;;;;18.20;46.20;;;;;;5052915;28;19958;-75
2023/03/31 04:45:16;;;;;;;;;;;18.10;46.30;;;;;;5052823;28;19959;-76
2023/03/31 04:47:42;;;;;;;;;;;18.10;46.40;;;;;;5052639;28;19951;-76
2023/03/31 04:50:09;;;;;;;;;;;18.20;46.50;;;;;;5052713;28;20384;-76
2023/03/31 04:52:35;;;;;;;;;;;18.10;46.50;;;;;;5052871;28;19995;-76
2023/03/31 04:55:02;;;;;;;;;;;18.10;46.50;;;;;;5052797;28;20039;-76
2023/03/31 04:57:28;;;;;;;;;;;18.10;46.60;;;;;;5052966;28;19915;-76
2023/03/31 04:59:54;;;;;;;;;;;18.00;46.50;;;;;;5052761;28;20010;-75
2023/03/31 05:02:22;;;;;;;;;;;18.00;46.60;;;;;;5052750;28;19909;-75
2023/03/31 05:04:49;;;;;;;;;;;18.10;46.70;;;;;;5052443;28;19912;-75
2023/03/31 05:07:16;;;;;;;;;;;18.10;46.60;;;;;;5052506;28;19912;-76
2023/03/31 05:09:41;;;;;;;;;;;18.10;46.50;;;;;;5052712;28;19978;-75
2023/03/31 05:12:07;;;;;;;;;;;18.10;46.40;;;;;;5052405;28;19912;-75
2023/03/31 05:14:33;;;;;;;;;;;18.10;46.40;;;;;;5052147;28;19924;-75
2023/03/31 05:16:59;;;;;;;;;;;18.20;46.30;;;;;;5034549;28;19912;-75
2023/03/31 05:19:25;;;;;;;;;;;18.10;46.30;;;;;;5052319;28;19908;-75
2023/03/31 05:21:51;;;;;;;;;;;18.30;46.30;;;;;;5034568;28;20379;-75
2023/03/31 05:24:17;;;;;;;;;;;18.20;46.30;;;;;;5052081;28;19913;-75
2023/03/31 05:26:48;;;;;;;;;;;18.30;46.30;;;;;;5052066;28;19909;-75
2023/03/31 05:29:15;;;;;;;;;;;18.10;46.30;;;;;;5052279;28;20338;-76
2023/03/31 05:31:41;;;;;;;;;;;18.10;46.40;;;;;;5051989;28;20007;-75
2023/03/31 05:34:07;;;;;;;;;;;18.00;46.50;;;;;;5052641;28;20338;-75
2023/03/31 05:36:33;;;;;;;;;;;17.90;46.50;;;;;;5052052;28;20440;-75
2023/03/31 05:38:59;;;;;;;;;;;18.20;46.50;;;;;;5052188;28;19948;-75
2023/03/31 05:41:25;;;;;;;;;;;18.20;46.40;;;;;;5051927;28;19962;-75
2023/03/31 05:43:51;;;;;;;;;;;18.10;46.30;;;;;;5033950;28;19916;-75
2023/03/31 05:46:17;;;;;;;;;;;18.10;46.20;;;;;;5051803;28;19927;-75
2023/03/31 05:48:43;;;;;;;;;;;18.30;46.30;;;;;;5033915;28;20288;-76
2023/03/31 05:51:09;;;;;;;;;;;18.20;46.10;;;;;;5051309;28;19973;-76
2023/03/31 05:53:35;;;;;;;;;;;18.30;46.10;;;;;;5033685;28;20365;-75
2023/03/31 05:56:03;;;;;;;;;;;18.30;46.10;;;;;;5051826;28;19923;-76
2023/03/31 05:58:29;;;;;;;;;;;18.30;46.10;;;;;;5051632;28;20380;-76
2023/03/31 06:01:18;;;;;;;;;;;18.40;46.00;;;;;;5051423;28;19916;-76
2023/03/31 06:03:44;;;;;;;;;;;18.20;45.90;;;;;;5033645;28;19966;-75
2023/03/31 06:06:13;;;;;;;;;;;18.20;45.90;;;;;;5051607;28;19916;-75
2023/03/31 06:08:39;;;;;;;;;;;18.30;46.00;;;;;;5051389;28;19935;-75
2023/03/31 06:11:06;;;;;;;;;;;18.20;45.90;;;;;;5051645;28;19913;-76
2023/03/31 06:13:33;;;;;;;;;;;18.20;45.90;;;;;;5051277;28;19979;-76
2023/03/31 06:15:59;;;;;;;;;;;18.30;46.10;;;;;;5033721;28;19909;-75
2023/03/31 06:18:27;;;;;;;;;;;18.20;46.10;;;;;;5051485;28;19912;-76
2023/03/31 06:20:53;;;;;;;;;;;18.20;46.10;;;;;;5051338;28;19912;-76
2023/03/31 06:23:19;;;;;;;;;;;18.10;46.10;;;;;;5033442;28;20367;-76
2023/03/31 06:25:45;;;;;;;;;;;18.20;46.10;;;;;;5051111;28;19912;-76
2023/03/31 06:28:11;;;;;;;;;;;18.20;46.10;;;;;;4999672;28;19919;-76
2023/03/31 06:30:37;;;;;;;;;;;18.20;46.20;;;;;;5051431;28;19983;-76
2023/03/31 06:33:03;;;;;;;;;;;18.20;46.30;;;;;;5033465;28;20015;-76
2023/03/31 06:35:29;;;;;;;;;;;18.20;46.30;;;;;;5050943;28;19912;-76
2023/03/31 06:37:55;;;;;;;;;;;18.40;46.30;;;;;;5051100;28;19909;-76
2023/03/31 06:40:21;;;;;;;;;;;18.30;46.20;;;;;;5051304;28;19962;-76
2023/03/31 06:42:46;;;;;;;;;;;18.30;46.10;;;;;;5051393;28;19909;-76
2023/03/31 06:45:12;;;;;;;;;;;18.40;46.10;;;;;;5051300;28;20327;-76
2023/03/31 06:47:40;;;;;;;;;;;18.30;45.90;;;;;;5051145;28;19963;-76
2023/03/31 06:50:07;;;;;;;;;;;18.40;45.90;;;;;;5051078;28;20383;-76
2023/03/31 06:52:33;;;;;;;;;;;18.40;45.90;;;;;;5050933;28;19951;-76
2023/03/31 06:54:59;;;;;;;;;;;18.40;46.00;;;;;;5051094;28;19909;-76
2023/03/31 06:57:26;;;;;;;;;;;18.30;46.10;;;;;;5050996;28;19908;-76
2023/03/31 06:59:51;;;;;;;;;;;18.30;46.10;;;;;;5051208;28;20011;-76
2023/03/31 07:02:17;;;;;;;;;;;18.30;46.10;;;;;;5051132;28;19987;-76
2023/03/31 07:04:43;;;;;;;;;;;18.30;46.30;;;;;;5054694;28;20460;-76
2023/03/31 07:07:09;;;;;;;;;;;18.30;46.20;;;;;;5054521;28;19913;-76
2023/03/31 07:09:35;;;;;;;;;;;18.40;46.10;;;;;;5054428;28;19919;-76
2023/03/31 07:12:04;;;;;;;;;;;18.40;46.10;;;;;;5037188;28;19913;-75
2023/03/31 07:14:30;;;;;;;;;;;18.40;46.10;;;;;;5054532;28;19940;-76
2023/03/31 07:16:56;;;;;;;;;;;18.40;46.00;;;;;;5054592;28;19923;-76
2023/03/31 07:19:22;;;;;;;;;;;18.50;46.00;;;;;;5054631;28;19909;-75
2023/03/31 07:21:48;;;;;;;;;;;18.50;45.90;;;;;;5036596;28;20564;-75
2023/03/31 07:24:14;;;;;;;;;;;18.50;45.80;;;;;;5054510;28;19909;-76
2023/03/31 07:26:40;;;;;;;;;;;18.60;45.70;;;;;;5054324;28;19909;-76
2023/03/31 07:29:06;;;;;;;;;;;18.50;45.70;;;;;;5036660;28;19982;-76
2023/03/31 07:31:33;;;;;;;;;;;18.40;45.60;;;;;;5054264;28;19912;-76
2023/03/31 07:33:59;;;;;;;;;;;18.50;45.80;;;;;;5054482;28;20758;-76
2023/03/31 07:36:25;;;;;;;;;;;18.40;45.60;;;;;;5054130;28;20260;-76
2023/03/31 07:38:51;;;;;;;;;;;18.40;45.60;;;;;;5054329;28;19919;-76
2023/03/31 07:41:18;;;;;;;;;;;18.50;45.80;;;;;;5054230;28;19916;-76
2023/03/31 07:43:45;;;;;;;;;;;18.40;45.80;;;;;;5054220;28;20010;-75
2023/03/31 07:46:15;;;;;;;;;;;18.50;45.80;;;;;;5053912;28;19955;-76
2023/03/31 07:48:42;;;;;;;;;;;18.40;45.80;;;;;;5054026;28;19978;-76
2023/03/31 07:51:08;;;;;;;;;;;18.50;45.80;;;;;;5054129;28;19919;-76
2023/03/31 07:53:36;;;;;;;;;;;18.50;45.90;;;;;;5036142;28;19909;-76
2023/03/31 07:56:01;;;;;;;;;;;18.30;45.80;;;;;;5053626;28;19912;-76
2023/03/31 07:58:28;;;;;;;;;;;18.40;45.90;;;;;;5053770;28;20000;-75
2023/03/31 08:00:53;;;;;;;;;;;18.30;46.00;;;;;;5053787;28;19954;-76
2023/03/31 08:03:19;;;;;;;;;;;18.30;46.10;;;;;;5053816;28;19912;-75
2023/03/31 08:05:45;;;;;;;;;;;18.30;46.30;;;;;;5053451;28;19916;-76
2023/03/31 08:08:11;;;;;;;;;;;18.30;46.30;;;;;;5053972;28;19920;-76
2023/03/31 08:10:37;;;;;;;;;;;18.30;46.10;;;;;;5053648;28;19952;-75
2023/03/31 08:13:03;;;;;;;;;;;18.40;46.10;;;;;;5053630;28;19916;-76
2023/03/31 08:15:29;;;;;;;;;;;18.40;46.00;;;;;;5052755;28;20400;-75
2023/03/31 08:17:55;;;;;;;;;;;18.40;46.00;;;;;;5011218;28;20317;-75
2023/03/31 08:20:20;;;;;;;;;;;18.40;46.00;;;;;;5011062;28;19925;-76
2023/03/31 08:22:46;;;;;;;;;;;18.40;45.90;;;;;;5011229;28;20404;-75
2023/03/31 08:25:12;;;;;;;;;;;18.50;45.90;;;;;;5011263;28;19916;-75
2023/03/31 08:27:39;;;;;;;;;;;18.50;45.80;;;;;;5010999;28;19917;-76
2023/03/31 08:30:06;;;;;;;;;;;18.50;45.70;;;;;;4995417;28;19992;-76
2023/03/31 08:32:33;;;;;;;;;;;18.50;45.80;;;;;;5011092;28;19917;-76
2023/03/31 08:34:59;;;;;;;;;;;18.50;45.90;;;;;;5010925;28;19917;-76
2023/03/31 08:37:27;;;;;;;;;;;18.40;45.90;;;;;;5010888;28;19910;-75
2023/03/31 08:39:53;;;;;;;;;;;18.40;45.90;;;;;;5011060;28;19916;-75
2023/03/31 08:42:24;;;;;;;;;;;18.50;45.90;;;;;;5010852;28;19944;-76
2023/03/31 08:44:57;;;;;;;;;;;18.50;45.80;;;;;;5010901;28;19920;-75
2023/03/31 08:47:24;;;;;;;;;;;18.60;45.70;;;;;;5010598;28;19913;-75
2023/03/31 08:49:52;;;;;;;;;;;18.70;45.70;;;;;;5048096;28;20009;-76
2023/03/31 08:52:23;;;;;;;;;;;18.60;45.60;;;;;;5052817;28;20364;-76
2023/03/31 08:54:51;;;;;;;;;;;18.70;45.60;;;;;;5052829;28;19908;-76
2023/03/31 08:57:21;;;;;;;;;;;18.70;45.60;;;;;;5052473;28;20467;-76
2023/03/31 08:59:46;;;;;;;;;;;18.70;45.50;;;;;;5052558;28;20042;-76
2023/03/31 09:02:18;;;;;;;;;;;18.70;45.50;;;;;;5034965;28;19995;-75
2023/03/31 09:04:50;;;;;;;;;;;18.70;45.50;;;;;;5052654;28;19912;-75
2023/03/31 09:07:35;;;;;;;;;;;18.60;45.40;;;;;;5052299;28;19916;-75
2023/03/31 09:10:10;;;;;;;;;;;18.70;45.60;;;;;;5052549;28;19913;-76
2023/03/31 09:12:56;;;;;;;;;;;18.50;45.50;;;;;;5052542;28;20344;-74
2023/03/31 09:15:33;;;;;;;;;;;18.70;45.60;;;;;;5052551;28;20229;-75
2023/03/31 09:18:03;;;;;;;;;;;18.70;45.60;;;;;;5052230;28;20395;-75
2023/03/31 09:20:30;;;;;;;;;;;18.50;45.60;;;;;;5052218;28;20396;-76
2023/03/31 09:22:59;;;;;;;;;;;18.60;45.60;;;;;;5052251;28;19953;-76
2023/03/31 09:25:26;;;;;;;;;;;18.60;45.50;;;;;;5050966;28;19909;-75
2023/03/31 09:27:54;;;;;;;;;;;18.60;45.60;;;;;;5050094;28;19913;-76
2023/03/31 09:30:23;;;;;;;;;;;18.60;45.60;;;;;;5050839;28;19917;-75
2023/03/31 09:32:58;;;;;;;;;;;18.50;45.60;;;;;;5052029;28;19912;-76
2023/03/31 09:35:25;;;;;;;;;;;18.60;45.70;;;;;;5052137;28;19920;-76
2023/03/31 09:37:51;;;;;;;;;;;18.70;45.90;;;;;;5012681;28;20225;-76
2023/03/31 09:40:18;;;;;;;;;;;18.60;45.80;;;;;;5029759;28;19913;-76
2023/03/31 09:42:45;;;;;;;;;;;18.60;45.70;;;;;;5029474;28;19909;-76
2023/03/31 09:45:15;;;;;;;;;;;18.60;45.60;;;;;;5029334;28;19909;-76
2023/03/31 09:47:43;;;;;;;;;;;18.70;45.60;;;;;;5030417;28;19912;-76
2023/03/31 09:50:09;;;;;;;;;;;18.70;45.60;;;;;;5029476;28;19929;-76
2023/03/31 09:53:07;;;;;;;;;;;18.70;45.60;;;;;;5012919;28;19920;-75
2023/03/31 09:55:41;;;;;;;;;;;18.80;45.60;;;;;;4970684;28;19921;-75
2023/03/31 09:58:11;;;;;;;;;;;18.60;45.50;;;;;;4970213;28;19910;-76
2023/03/31 10:00:40;;;;;;;;;;;18.70;45.70;;;;;;4954701;28;19997;-76
2023/03/31 10:03:08;;;;;;;;;;;18.40;45.50;;;;;;4954342;28;19960;-76
2023/03/31 10:05:42;;;;;;;;;;;18.60;45.50;;;;;;4970533;28;19921;-76
2023/03/31 10:08:12;;;;;;;;;;;18.70;45.80;;;;;;4973886;28;19984;-75
2023/03/31 10:10:43;;;;;;;;;;;18.80;45.60;;;;;;4989574;28;19918;-76
2023/03/31 10:13:09;;;;;;;;;;;18.80;45.50;;;;;;4992234;28;19921;-76
2023/03/31 10:15:38;;;;;;;;;;;18.90;45.30;;;;;;5009398;28;19917;-76
2023/03/31 10:18:04;;;;;;;;;;;18.90;45.30;;;;;;5009105;28;19957;-75
2023/03/31 10:20:32;;;;;;;;;;;19.10;45.20;;;;;;5009415;28;20008;-77
2023/03/31 10:23:03;;;;;;;;;;;19.00;45.20;;;;;;5009390;28;20340;-75
2023/03/31 10:25:29;;;;;;;;;;;19.00;45.00;;;;;;5009179;28;19909;-76
2023/03/31 10:27:56;;;;;;;;;;;19.00;44.90;;;;;;5009193;28;19917;-75
2023/03/31 10:30:27;;;;;;;;;;;19.10;44.90;;;;;;5020207;28;19993;-76
2023/03/31 10:32:54;;;;;;;;;;;19.00;44.90;;;;;;5071478;28;19908;-76
2023/03/31 10:35:31;;;;;;;;;;;19.00;45.00;;;;;;5071278;28;19919;-75
2023/03/31 10:37:58;;;;;;;;;;;19.10;45.10;;;;;;5072526;28;19909;-76
2023/03/31 10:40:25;;;;;;;;;;;19.10;45.00;;;;;;5075524;28;19975;-76
2023/03/31 10:43:00;;;;;;;;;;;19.10;45.00;;;;;;5075592;28;20444;-75
2023/03/31 10:45:27;;;;;;;;;;;19.10;44.90;;;;;;5075289;28;19909;-77
2023/03/31 10:47:54;;;;;;;;;;;19.00;44.80;;;;;;5075207;28;20368;-76
2023/03/31 10:50:25;;;;;;;;;;;19.10;45.00;;;;;;5074988;28;19912;-75
2023/03/31 10:52:51;;;;;;;;;;;19.10;45.00;;;;;;5056281;28;20045;-76
2023/03/31 10:55:22;;;;;;;;;;;19.20;45.00;;;;;;5075209;28;19997;-75
2023/03/31 10:57:54;;;;;;;;;;;19.10;44.90;;;;;;5075120;28;19919;-76
2023/03/31 11:00:20;;;;;;;;;;;19.20;44.90;;;;;;5075067;28;19912;-76
2023/03/31 11:02:57;;;;;;;;;;;19.20;45.00;;;;;;5074960;28;19909;-76
2023/03/31 11:05:38;;;;;;;;;;;19.20;45.00;;;;;;5074901;28;19908;-76
2023/03/31 11:08:10;;;;;;;;;;;19.10;45.00;;;;;;5072019;28;20354;-76
2023/03/31 11:10:45;;;;;;;;;;;19.20;45.10;;;;;;5072092;28;19912;-76
2023/03/31 11:13:20;;;;;;;;;;;19.20;45.10;;;;;;5072258;28;19920;-76
2023/03/31 11:15:51;;;;;;;;;;;19.30;45.20;;;;;;5072203;28;20383;-75
2023/03/31 11:18:26;;;;;;;;;;;19.30;45.20;;;;;;5072025;28;20011;-76
2023/03/31 11:21:11;;;;;;;;;;;19.30;45.20;;;;;;5072099;28;19908;-75
2023/03/31 11:23:41;;;;;;;;;;;19.20;45.00;;;;;;5072165;28;20328;-76
2023/03/31 11:26:08;;;;;;;;;;;19.20;45.00;;;;;;5055494;28;19908;-76
2023/03/31 11:28:39;;;;;;;;;;;19.20;44.90;;;;;;5055243;28;20015;-76
2023/03/31 11:31:11;;;;;;;;;;;19.20;45.00;;;;;;5072044;28;19916;-76
2023/03/31 11:33:47;;;;;;;;;;;19.10;45.00;;;;;;5071907;28;20356;-76
2023/03/31 11:36:28;;;;;;;;;;;19.20;45.10;;;;;;5072025;28;19908;-76
2023/03/31 11:39:09;;;;;;;;;;;19.20;45.20;;;;;;5072781;28;19985;-75
2023/03/31 11:41:38;;;;;;;;;;;19.20;45.30;;;;;;5074344;28;19912;-75
2023/03/31 11:44:05;;;;;;;;;;;19.30;45.50;;;;;;5072734;28;20367;-75
2023/03/31 11:46:45;;;;;;;;;;;19.20;45.30;;;;;;5074059;28;19916;-76
2023/03/31 11:49:31;;;;;;;;;;;19.10;45.30;;;;;;5072990;28;20368;-75
2023/03/31 11:52:01;;;;;;;;;;;19.20;45.30;;;;;;5073535;28;19912;-76
2023/03/31 11:54:54;;;;;;;;;;;19.30;45.50;;;;;;5072697;28;19915;-76
2023/03/31 11:57:26;;;;;;;;;;;19.40;45.50;;;;;;4991877;28;19910;-75
2023/03/31 11:59:57;;;;;;;;;;;19.20;45.30;;;;;;4992092;28;19910;-76
2023/03/31 12:02:37;;;;;;;;;;;19.10;45.30;;;;;;4991913;28;19914;-75
2023/03/31 12:05:05;;;;;;;;;;;19.30;45.50;;;;;;4992221;28;19916;-75
2023/03/31 12:07:30;;;;;;;;;;;19.20;45.50;;;;;;4991956;28;20001;-76
2023/03/31 12:10:04;;;;;;;;;;;19.10;45.60;;;;;;4992034;28;20344;-76
2023/03/31 12:12:41;;;;;;;;;;;19.10;45.60;;;;;;4953000;29;19918;-75
2023/03/31 12:15:15;;;;;;;;;;;19.20;45.80;;;;;;4953054;29;19918;-76
2023/03/31 12:17:44;;;;;;;;;;;19.10;45.80;;;;;;4952886;29;20009;-76
2023/03/31 12:20:22;;;;;;;;;;;19.20;45.80;;;;;;4953107;29;19910;-75
2023/03/31 12:22:48;;;;;;;;;;;19.10;45.80;;;;;;4952913;29;19965;-75
2023/03/31 12:25:15;;;;;;;;;;;19.10;45.90;;;;;;4953026;29;19918;-76
2023/03/31 12:27:48;;;;;;;;;;;19.00;45.90;;;;;;4952584;29;19921;-75
2023/03/31 12:30:21;;;;;;;;;;;19.00;45.90;;;;;;4952885;29;19925;-76
2023/03/31 12:33:10;;;;;;;;;;;19.00;46.00;;;;;;4952714;29;19914;-75
2023/03/31 12:35:49;;;;;;;;;;;19.00;46.00;;;;;;5030703;28;19916;-76
2023/03/31 12:38:17;;;;;;;;;;;19.00;46.00;;;;;;5030780;28;20361;-76
2023/03/31 12:40:55;;;;;;;;;;;19.00;46.10;;;;;;5030799;28;19962;-76
2023/03/31 12:43:24;;;;;;;;;;;18.90;46.30;;;;;;5037105;28;20257;-76
2023/03/31 12:46:08;;;;;;;;;;;19.00;46.40;;;;;;5073177;28;20007;-76
2023/03/31 12:48:43;;;;;;;;;;;19.00;46.40;;;;;;5072846;28;20359;-76
2023/03/31 12:51:21;;;;;;;;;;;19.00;46.50;;;;;;5073063;28;20347;-76
2023/03/31 12:54:00;;;;;;;;;;;18.90;46.50;;;;;;5073152;28;19958;-75
2023/03/31 12:56:26;;;;;;;;;;;18.90;46.50;;;;;;5071486;28;19978;-75
2023/03/31 12:58:51;;;;;;;;;;;18.90;46.40;;;;;;5072686;28;20335;-76
2023/03/31 13:01:24;;;;;;;;;;;19.00;46.50;;;;;;5072627;28;19912;-75
2023/03/31 13:03:50;;;;;;;;;;;18.90;46.50;;;;;;5050091;28;19913;-76
2023/03/31 13:06:25;;;;;;;;;;;19.00;46.40;;;;;;5050196;28;19978;-76
2023/03/31 13:08:56;;;;;;;;;;;18.90;46.30;;;;;;5033191;28;20011;-76
2023/03/31 13:11:37;;;;;;;;;;;19.00;46.40;;;;;;5050076;28;19927;-76
2023/03/31 13:14:22;;;;;;;;;;;19.00;46.60;;;;;;5049929;28;19931;-76
2023/03/31 13:16:49;;;;;;;;;;;19.00;46.60;;;;;;5050079;28;20050;-76
2023/03/31 13:19:50;;;;;;;;;;;19.00;46.60;;;;;;5049945;28;19912;-75
2023/03/31 13:22:36;;;;;;;;;;;19.10;46.70;;;;;;4990658;28;19929;-76
2023/03/31 13:25:21;;;;;;;;;;;19.00;46.40;;;;;;4990256;28;19914;-75
2023/03/31 13:27:52;;;;;;;;;;;19.00;46.40;;;;;;4990197;28;19914;-76
2023/03/31 13:30:47;;;;;;;;;;;19.10;46.30;;;;;;4974022;28;20012;-75
2023/03/31 13:33:15;;;;;;;;;;;19.10;46.30;;;;;;4932387;29;20056;-76
2023/03/31 13:35:45;;;;;;;;;;;19.10;46.30;;;;;;4965282;28;19910;-76
2023/03/31 13:38:30;;;;;;;;;;;19.10;46.40;;;;;;4970736;28;19991;-76
2023/03/31 13:41:15;;;;;;;;;;;19.10;46.50;;;;;;4970970;28;20404;-76
2023/03/31 13:43:59;;;;;;;;;;;19.10;46.60;;;;;;4970687;28;19918;-76
2023/03/31 13:46:44;;;;;;;;;;;19.20;46.50;;;;;;4970848;28;19957;-76
2023/03/31 13:49:25;;;;;;;;;;;19.00;46.50;;;;;;4970460;28;19918;-75
2023/03/31 13:51:51;;;;;;;;;;;19.00;46.50;;;;;;4954389;28;19914;-75
2023/03/31 13:54:35;;;;;;;;;;;19.00;46.60;;;;;;4970837;28;19921;-75
2023/03/31 13:57:16;;;;;;;;;;;19.00;46.60;;;;;;4986082;28;19957;-76
2023/03/31 14:00:08;;;;;;;;;;;18.90;46.60;;;;;;4990087;28;20400;-75
2023/03/31 14:02:38;;;;;;;;;;;19.00;46.60;;;;;;4913104;29;20360;-75
2023/03/31 14:05:24;;;;;;;;;;;19.10;46.60;;;;;;4913232;29;19930;-76
2023/03/31 14:07:53;;;;;;;;;;;19.00;46.50;;;;;;4912966;29;20009;-76
2023/03/31 14:10:26;;;;;;;;;;;19.00;46.40;;;;;;4988275;28;19968;-76
2023/03/31 14:13:03;;;;;;;;;;;19.00;46.40;;;;;;5008873;28;19979;-76
2023/03/31 14:15:29;;;;;;;;;;;19.10;46.60;;;;;;5009203;28;20336;-75
2023/03/31 14:17:55;;;;;;;;;;;19.10;46.60;;;;;;5009395;28;19913;-75
2023/03/31 14:20:23;;;;;;;;;;;19.10;46.50;;;;;;5009333;28;19940;-76
2023/03/31 14:23:01;;;;;;;;;;;19.00;46.40;;;;;;5009251;28;19913;-75
2023/03/31 14:25:30;;;;;;;;;;;19.10;46.50;;;;;;4989723;28;19909;-76
2023/03/31 14:28:01;;;;;;;;;;;19.20;46.40;;;;;;4989501;28;20313;-76
2023/03/31 14:30:28;;;;;;;;;;;19.20;46.40;;;;;;4973337;28;20436;-75
2023/03/31 14:33:05;;;;;;;;;;;19.20;46.30;;;;;;4989607;28;19914;-76